Time;durP1;ratioP1;P1;durP2;ratioP2;P2;SDS_P1;SDS_P2;PMS_P1;PMS_P2;Temp;Humidity;BMP_temperature;BMP_pressure;BME280_temperature;BME280_humidity;BME280_pressure;Samples;Min_cycle;Max_cycle;Signal;HPM_P1;HPM_P2
2021/06/05 00:01:23;;;;;;;8.35;2.70;;;15.50;77.50;;;;;;5029094;28;20518;-68
2021/06/05 00:03:50;;;;;;;6.35;2.58;;;15.40;77.80;;;;;;5028615;28;20163;-69
2021/06/05 00:06:17;;;;;;;3.72;2.10;;;15.40;78.20;;;;;;5027400;28;20029;-69
2021/06/05 00:08:45;;;;;;;8.27;2.33;;;15.30;78.60;;;;;;5028706;28;20504;-69
2021/06/05 00:11:12;;;;;;;5.93;2.35;;;15.30;78.70;;;;;;5028811;28;20109;-69
2021/06/05 00:13:41;;;;;;;9.80;2.78;;;15.30;78.80;;;;;;5028353;28;20108;-68
2021/06/05 00:16:10;;;;;;;4.00;2.22;;;15.20;79.00;;;;;;5029011;28;20296;-69
2021/06/05 00:18:36;;;;;;;3.72;2.25;;;15.20;78.90;;;;;;5027960;28;20683;-69
2021/06/05 00:21:02;;;;;;;;;;;15.20;79.10;;;;;;5028681;28;20037;-69
2021/06/05 00:23:28;;;;;;;10.70;2.95;;;15.10;79.40;;;;;;5028582;28;19990;-69
2021/06/05 00:25:54;;;;;;;;;;;15.10;79.40;;;;;;5029171;28;20102;-69
2021/06/05 00:28:21;;;;;;;2.80;1.70;;;15.10;79.70;;;;;;5027046;28;20317;-69
2021/06/05 00:30:47;;;;;;;3.42;2.13;;;15.10;79.60;;;;;;5028855;28;20032;-69
2021/06/05 00:33:13;;;;;;;;;;;15.00;79.80;;;;;;5027989;28;20430;-69
2021/06/05 00:35:40;;;;;;;6.35;2.42;;;15.00;79.90;;;;;;5028529;28;19992;-69
2021/06/05 00:38:07;;;;;;;5.13;2.42;;;14.90;79.90;;;;;;5028414;28;20025;-69
2021/06/05 00:40:38;;;;;;;3.28;1.50;;;14.90;80.30;;;;;;5027933;28;20025;-69
2021/06/05 00:43:06;;;;;;;10.90;1.83;;;14.90;80.60;;;;;;5028181;28;20036;-69
2021/06/05 00:45:35;;;;;;;5.07;2.00;;;14.80;80.50;;;;;;5028300;28;20401;-69
2021/06/05 00:48:01;;;;;;;5.63;2.22;;;14.80;80.80;;;;;;5027468;28;20383;-68
2021/06/05 00:50:28;;;;;;;;;;;14.80;81.00;;;;;;5028681;28;20025;-69
2021/06/05 00:52:54;;;;;;;6.93;2.17;;;14.80;81.00;;;;;;5026840;28;19905;-68
2021/06/05 00:55:23;;;;;;;7.95;2.10;;;14.70;81.20;;;;;;5027695;28;20056;-69
2021/06/05 00:57:49;;;;;;;3.75;2.13;;;14.70;81.30;;;;;;5027611;28;20029;-69
2021/06/05 01:00:24;;;;;;;;;;;14.70;81.30;;;;;;5028370;28;20094;-69
2021/06/05 01:02:49;;;;;;;7.72;2.33;;;14.60;81.50;;;;;;5027287;28;19912;-69
2021/06/05 01:05:16;;;;;;;;;;;14.60;81.70;;;;;;5028207;28;20033;-69
2021/06/05 01:07:43;;;;;;;9.05;2.92;;;14.60;82.00;;;;;;5027530;28;19909;-69
2021/06/05 01:10:28;;;;;;;5.82;2.10;;;14.60;81.80;;;;;;5027877;28;20109;-69
2021/06/05 01:13:04;;;;;;;7.05;2.53;;;14.60;81.90;;;;;;5027892;28;20032;-70
2021/06/05 01:15:35;;;;;;;9.00;2.30;;;14.60;81.60;;;;;;5027830;28;20056;-69
2021/06/05 01:18:11;;;;;;;3.72;1.83;;;14.60;81.50;;;;;;5026786;28;20046;-69
2021/06/05 01:20:51;;;;;;;3.55;2.13;;;14.60;81.40;;;;;;5027715;28;20041;-69
2021/06/05 01:23:31;;;;;;;5.88;2.05;;;14.60;81.30;;;;;;5027593;28;20490;-70
2021/06/05 01:26:04;;;;;;;18.00;3.05;;;14.60;81.40;;;;;;5027809;28;20655;-70
2021/06/05 01:28:52;;;;;;;6.03;2.17;;;14.60;81.70;;;;;;5027532;28;20526;-69
2021/06/05 01:31:22;;;;;;;3.03;2.10;;;14.60;82.00;;;;;;5027133;28;20034;-69
2021/06/05 01:33:48;;;;;;;10.07;2.60;;;14.60;81.80;;;;;;5025825;28;20046;-69
2021/06/05 01:36:16;;;;;;;4.10;1.73;;;14.50;81.80;;;;;;5027351;28;20033;-69
2021/06/05 01:38:45;;;;;;;5.10;2.38;;;14.50;82.00;;;;;;5027355;28;20036;-69
2021/06/05 01:41:13;;;;;;;4.38;2.20;;;14.50;82.30;;;;;;5027144;28;20044;-69
2021/06/05 01:43:40;;;;;;;8.07;3.42;;;14.50;82.60;;;;;;5027210;28;20030;-69
2021/06/05 01:46:07;;;;;;;4.38;1.90;;;14.40;82.90;;;;;;5025724;28;20061;-69
2021/06/05 01:48:34;;;;;;;4.00;2.28;;;14.40;82.90;;;;;;5026429;28;20026;-69
2021/06/05 01:51:08;;;;;;;7.72;2.00;;;14.30;83.00;;;;;;5026919;28;20116;-69
2021/06/05 01:53:38;;;;;;;4.25;2.15;;;14.20;82.90;;;;;;5026667;28;20025;-69
2021/06/05 01:56:15;;;;;;;4.18;2.00;;;14.20;83.40;;;;;;5026957;28;20033;-70
2021/06/05 01:58:43;;;;;;;6.60;2.10;;;14.20;83.30;;;;;;5026874;28;20025;-69
2021/06/05 02:01:09;;;;;;;6.93;2.65;;;14.20;83.00;;;;;;5026018;28;20490;-69
2021/06/05 02:03:35;;;;;;;4.82;2.10;;;14.20;83.20;;;;;;5024615;28;20497;-69
2021/06/05 02:06:00;;;;;;;;;;;14.20;83.50;;;;;;5021466;28;20101;-69
2021/06/05 02:08:27;;;;;;;11.32;2.50;;;14.10;83.50;;;;;;5007450;28;20472;-69
2021/06/05 02:11:00;;;;;;;8.30;2.30;;;14.10;83.10;;;;;;5001315;28;20490;-69
2021/06/05 02:13:47;;;;;;;10.02;2.10;;;14.10;83.00;;;;;;5000880;28;20040;-69
2021/06/05 02:16:15;;;;;;;;;;;14.10;83.30;;;;;;5001785;28;20116;-69
2021/06/05 02:18:46;;;;;;;5.65;2.22;;;14.10;83.50;;;;;;5001078;28;19928;-69
2021/06/05 02:21:16;;;;;;;6.60;2.70;;;14.10;83.60;;;;;;5001126;28;20392;-69
2021/06/05 02:24:00;;;;;;;4.10;2.15;;;14.10;83.70;;;;;;5000946;28;20563;-69
2021/06/05 02:26:27;;;;;;;10.63;2.45;;;14.10;84.30;;;;;;5000923;28;20122;-69
2021/06/05 02:28:56;;;;;;;6.85;2.50;;;14.00;84.40;;;;;;4999990;28;20249;-69
2021/06/05 02:31:23;;;;;;;5.28;2.53;;;13.90;84.60;;;;;;5000835;28;20026;-69
2021/06/05 02:33:50;;;;;;;4.13;2.10;;;13.90;84.80;;;;;;5000708;28;20537;-68
2021/06/05 02:36:17;;;;;;;4.57;2.20;;;13.90;84.80;;;;;;5019423;28;20047;-68
2021/06/05 02:38:47;;;;;;;5.00;2.45;;;13.90;84.80;;;;;;5020408;28;20029;-68
2021/06/05 02:41:16;;;;;;;7.28;2.40;;;13.90;84.60;;;;;;5020703;28;20041;-68
2021/06/05 02:43:43;;;;;;;4.60;2.30;;;13.90;84.50;;;;;;5025109;28;20028;-68
2021/06/05 02:46:20;;;;;;;12.00;2.60;;;13.80;84.50;;;;;;5029241;28;20034;-68
2021/06/05 02:48:51;;;;;;;6.47;2.05;;;13.90;84.40;;;;;;5029117;28;20745;-68
2021/06/05 02:51:21;;;;;;;10.82;2.40;;;13.90;84.00;;;;;;5029137;28;20409;-69
2021/06/05 02:53:47;;;;;;;9.13;2.75;;;14.00;83.60;;;;;;5029061;28;20029;-68
2021/06/05 02:56:12;;;;;;;6.50;2.65;;;14.00;83.50;;;;;;5029334;28;20502;-68
2021/06/05 02:58:39;;;;;;;;;;;14.00;83.30;;;;;;5029828;28;20045;-68
2021/06/05 03:01:06;;;;;;;4.85;2.53;;;14.00;83.80;;;;;;5029296;28;20274;-68
2021/06/05 03:03:33;;;;;;;7.72;2.22;;;14.00;83.70;;;;;;5029202;28;20041;-68
2021/06/05 03:05:58;;;;;;;5.35;2.65;;;14.00;83.60;;;;;;5029496;28;20260;-69
2021/06/05 03:08:25;;;;;;;;;;;14.00;83.90;;;;;;5028936;28;20021;-69
2021/06/05 03:10:52;;;;;;;6.15;2.92;;;14.00;84.30;;;;;;5028987;28;19916;-68
2021/06/05 03:13:19;;;;;;;9.38;2.70;;;14.00;84.30;;;;;;5028739;28;20041;-68
2021/06/05 03:15:45;;;;;;;5.78;2.60;;;14.00;83.90;;;;;;5028546;28;20494;-68
2021/06/05 03:18:13;;;;;;;7.00;2.53;;;14.00;83.70;;;;;;5028768;28;20057;-68
2021/06/05 03:20:41;;;;;;;7.03;2.60;;;14.00;83.50;;;;;;5027542;28;20433;-68
2021/06/05 03:23:09;;;;;;;4.50;2.72;;;14.10;83.20;;;;;;5027859;28;20034;-68
2021/06/05 03:25:36;;;;;;;4.93;2.45;;;14.10;82.90;;;;;;5027627;28;20037;-68
2021/06/05 03:28:02;;;;;;;5.38;3.20;;;14.20;82.80;;;;;;5029174;28;20075;-68
2021/06/05 03:30:28;;;;;;;7.03;2.53;;;14.30;82.70;;;;;;5028063;28;20239;-68
2021/06/05 03:32:53;;;;;;;;;;;14.30;82.50;;;;;;5029311;28;20021;-68
2021/06/05 03:35:20;;;;;;;5.55;2.72;;;14.40;82.30;;;;;;5027323;28;20072;-69
2021/06/05 03:37:46;;;;;;;5.35;2.53;;;14.40;82.10;;;;;;5028487;28;20108;-68
2021/06/05 03:40:12;;;;;;;;;;;14.50;81.90;;;;;;5029411;28;20082;-68
2021/06/05 03:42:38;;;;;;;8.55;3.25;;;14.60;82.00;;;;;;5028934;28;20164;-67
2021/06/05 03:45:05;;;;;;;;;;;14.60;82.10;;;;;;5029362;28;20041;-68
2021/06/05 03:47:30;;;;;;;5.43;3.00;;;14.70;82.00;;;;;;5027059;28;19905;-68
2021/06/05 03:49:56;;;;;;;;;;;14.80;81.60;;;;;;5029369;28;20379;-67
2021/06/05 03:52:23;;;;;;;3.95;2.17;;;14.90;81.70;;;;;;5028749;28;19909;-67
2021/06/05 03:54:53;;;;;;;8.15;2.80;;;15.00;81.30;;;;;;5027229;28;20029;-68
2021/06/05 03:57:21;;;;;;;6.55;2.28;;;15.20;81.30;;;;;;5025325;28;20034;-68
2021/06/05 03:59:46;;;;;;;3.22;1.92;;;15.40;80.50;;;;;;5024872;28;20112;-68
2021/06/05 04:02:12;;;;;;;;;;;15.70;79.20;;;;;;5025642;28;20160;-67
2021/06/05 04:04:38;;;;;;;8.65;2.13;;;16.00;77.80;;;;;;5027446;28;19909;-68
2021/06/05 04:07:09;;;;;;;3.15;1.65;;;16.40;76.70;;;;;;5029016;28;20520;-68
2021/06/05 04:09:35;;;;;;;5.63;1.98;;;16.90;74.60;;;;;;5028990;28;20066;-68
2021/06/05 04:12:02;;;;;;;6.05;2.20;;;17.40;72.60;;;;;;5028686;28;20110;-68
2021/06/05 04:14:28;;;;;;;3.95;1.83;;;17.80;71.10;;;;;;5028964;28;20127;-68
2021/06/05 04:16:54;;;;;;;3.80;1.70;;;18.00;70.30;;;;;;5028663;28;20179;-68
2021/06/05 04:19:20;;;;;;;4.72;1.73;;;18.10;70.90;;;;;;5028395;28;20116;-68
2021/06/05 04:21:46;;;;;;;5.45;2.03;;;18.10;71.00;;;;;;5028706;28;20041;-67
2021/06/05 04:24:11;;;;;;;5.10;1.90;;;18.20;71.00;;;;;;5027371;28;20186;-67
2021/06/05 04:26:37;;;;;;;3.53;1.75;;;18.30;71.10;;;;;;5027104;28;20552;-68
2021/06/05 04:29:04;;;;;;;4.40;1.77;;;18.50;70.80;;;;;;5028481;28;20038;-68
2021/06/05 04:31:30;;;;;;;3.33;1.70;;;18.60;71.20;;;;;;5027881;28;20524;-68
2021/06/05 04:33:56;;;;;;;4.65;2.05;;;18.70;71.40;;;;;;5028635;28;20060;-68
2021/06/05 04:36:22;;;;;;;7.50;2.50;;;18.90;70.60;;;;;;5028434;28;20552;-68
2021/06/05 04:38:48;;;;;;;5.68;1.90;;;19.00;70.00;;;;;;5027162;28;20139;-69
2021/06/05 04:41:16;;;;;;;8.10;2.17;;;19.20;69.30;;;;;;5028139;28;20040;-68
2021/06/05 04:43:43;;;;;;;10.73;2.22;;;19.20;69.30;;;;;;5028075;28;20030;-68
2021/06/05 04:46:09;;;;;;;5.05;2.00;;;19.20;69.80;;;;;;5027942;28;20037;-67
2021/06/05 04:48:35;;;;;;;4.68;1.98;;;19.40;69.80;;;;;;5027778;28;20025;-68
2021/06/05 04:51:01;;;;;;;4.80;1.88;;;19.40;69.20;;;;;;5028262;28;20108;-68
2021/06/05 04:53:27;;;;;;;5.32;2.00;;;19.60;69.10;;;;;;5028311;28;20025;-68
2021/06/05 04:55:53;;;;;;;6.35;2.03;;;19.70;68.40;;;;;;5028090;28;20021;-69
2021/06/05 04:58:20;;;;;;;6.13;2.90;;;19.90;67.30;;;;;;5027607;28;20037;-68
2021/06/05 05:00:48;;;;;;;5.90;2.10;;;20.10;67.90;;;;;;5027493;28;20037;-68
2021/06/05 05:03:19;;;;;;;5.38;2.35;;;20.30;66.80;;;;;;5027843;28;20034;-68
2021/06/05 05:05:46;;;;;;;3.60;1.83;;;20.50;65.80;;;;;;5027869;28;20029;-68
2021/06/05 05:08:13;;;;;;;9.07;1.75;;;20.60;65.60;;;;;;5027380;28;20029;-68
2021/06/05 05:10:46;;;;;;;3.40;2.10;;;20.80;65.00;;;;;;5027423;28;20031;-67
2021/06/05 05:13:14;;;;;;;3.10;1.92;;;21.00;64.90;;;;;;5027297;28;20061;-68
2021/06/05 05:15:41;;;;;;;5.03;1.85;;;21.20;65.30;;;;;;5027366;28;20409;-68
2021/06/05 05:18:06;;;;;;;3.83;2.15;;;21.50;64.60;;;;;;5027862;28;20474;-68
2021/06/05 05:20:36;;;;;;;4.25;1.88;;;21.70;63.40;;;;;;5027176;28;20036;-68
2021/06/05 05:23:03;;;;;;;3.42;1.67;;;21.90;63.30;;;;;;5027137;28;20029;-68
2021/06/05 05:25:29;;;;;;;9.82;2.30;;;22.00;62.70;;;;;;5027712;28;20022;-68
2021/06/05 05:27:54;;;;;;;5.55;2.60;;;22.20;61.60;;;;;;5027177;28;20026;-68
2021/06/05 05:30:27;;;;;;;3.45;2.35;;;22.40;61.10;;;;;;5025756;28;20394;-67
2021/06/05 05:32:53;;;;;;;10.82;1.95;;;22.50;58.30;;;;;;5027278;28;20035;-68
2021/06/05 05:35:19;;;;;;;4.40;1.98;;;22.90;55.70;;;;;;5027053;28;20045;-68
2021/06/05 05:37:45;;;;;;;11.95;2.15;;;23.20;53.80;;;;;;5026057;28;20482;-69
2021/06/05 05:40:13;;;;;;;8.15;2.60;;;23.50;52.50;;;;;;5026052;28;20029;-68
2021/06/05 05:42:39;;;;;;;7.47;2.08;;;23.60;50.70;;;;;;5027180;28;20513;-68
2021/06/05 05:45:07;;;;;;;7.45;2.13;;;23.90;50.80;;;;;;5026303;28;20022;-68
2021/06/05 05:47:33;;;;;;;3.90;1.92;;;24.30;49.90;;;;;;5026996;28;20110;-69
2021/06/05 05:49:58;;;;;;;11.93;3.03;;;24.90;48.90;;;;;;5025678;28;20110;-69
2021/06/05 05:52:24;;;;;;;5.22;2.28;;;25.70;47.50;;;;;;5027033;28;20393;-68
2021/06/05 05:54:50;;;;;;;6.45;2.42;;;26.90;44.90;;;;;;5027035;28;20039;-68
2021/06/05 05:57:16;;;;;;;6.07;2.45;;;28.10;41.10;;;;;;5026814;28;20029;-69
2021/06/05 05:59:41;;;;;;;7.03;2.53;;;29.10;40.40;;;;;;5026340;28;20034;-69
2021/06/05 06:02:08;;;;;;;4.40;2.60;;;30.20;38.20;;;;;;5026828;28;20087;-69
2021/06/05 06:04:33;;;;;;;5.80;2.67;;;31.00;36.20;;;;;;5026929;28;20378;-69
2021/06/05 06:06:59;;;;;;;5.78;2.72;;;31.80;34.50;;;;;;5026407;28;20550;-69
2021/06/05 06:09:25;;;;;;;5.57;2.60;;;32.30;33.30;;;;;;5026760;28;20101;-70
2021/06/05 06:11:51;;;;;;;7.63;2.65;;;33.00;32.10;;;;;;5026835;28;20108;-70
2021/06/05 06:14:17;;;;;;;4.93;2.60;;;33.60;30.70;;;;;;5026181;28;20121;-70
2021/06/05 06:16:43;;;;;;;7.38;2.72;;;34.20;30.60;;;;;;5025166;28;20025;-70
2021/06/05 06:19:12;;;;;;;6.03;2.90;;;34.10;30.30;;;;;;5025680;28;20026;-69
2021/06/05 06:21:38;;;;;;;5.90;2.80;;;34.20;30.50;;;;;;5024990;28;20045;-69
2021/06/05 06:24:05;;;;;;;12.32;3.13;;;34.70;29.50;;;;;;5026398;28;20041;-68
2021/06/05 06:26:31;;;;;;;13.48;2.97;;;35.00;28.60;;;;;;5025174;28;20033;-67
2021/06/05 06:29:06;;;;;;;12.00;2.90;;;35.10;29.10;;;;;;5026058;28;20075;-67
2021/06/05 06:31:32;;;;;;;6.22;3.10;;;35.00;29.00;;;;;;5026077;28;20080;-67
2021/06/05 06:33:58;;;;;;;8.65;2.75;;;35.30;28.60;;;;;;5026435;28;20045;-68
2021/06/05 06:36:25;;;;;;;10.52;2.65;;;35.40;28.70;;;;;;5024866;28;20075;-66
2021/06/05 06:38:51;;;;;;;8.13;2.67;;;35.20;28.90;;;;;;5026533;28;20055;-68
2021/06/05 06:41:27;;;;;;;15.07;2.80;;;35.10;28.70;;;;;;5026447;28;20432;-67
2021/06/05 06:43:55;;;;;;;5.97;2.63;;;35.60;28.10;;;;;;5025385;28;20112;-67
2021/06/05 06:46:27;;;;;;;8.57;2.30;;;35.60;28.10;;;;;;5026439;28;20040;-68
2021/06/05 06:48:55;;;;;;;10.15;2.72;;;35.80;26.90;;;;;;5026030;28;20029;-68
2021/06/05 06:51:22;;;;;;;6.75;2.78;;;35.90;26.70;;;;;;5026553;28;20104;-67
2021/06/05 06:53:48;;;;;;;9.70;2.50;;;35.90;27.10;;;;;;5026189;28;20040;-67
2021/06/05 06:56:14;;;;;;;4.05;2.30;;;36.30;26.50;;;;;;5026267;28;20030;-67
2021/06/05 06:58:40;;;;;;;8.30;3.20;;;36.20;27.00;;;;;;5025483;28;20030;-67
2021/06/05 07:01:07;;;;;;;6.97;2.65;;;36.10;26.60;;;;;;5024656;28;20064;-68
2021/06/05 07:03:33;;;;;;;6.85;3.65;;;36.10;27.10;;;;;;5025851;28;20534;-68
2021/06/05 07:05:59;;;;;;;6.97;3.63;;;35.90;27.60;;;;;;5024589;28;20029;-68
2021/06/05 07:08:30;;;;;;;6.85;2.42;;;36.10;26.90;;;;;;5025603;28;20414;-68
2021/06/05 07:10:59;;;;;;;11.70;2.80;;;36.30;27.40;;;;;;5026113;28;20017;-68
2021/06/05 07:13:27;;;;;;;9.25;2.97;;;36.20;27.30;;;;;;5025398;28;20036;-68
2021/06/05 07:15:55;;;;;;;4.65;2.15;;;36.10;27.10;;;;;;5025860;28;20029;-67
2021/06/05 07:18:21;;;;;;;6.00;2.30;;;36.10;27.40;;;;;;5025392;28;20117;-68
2021/06/05 07:20:51;;;;;;;9.18;2.63;;;36.20;27.50;;;;;;5026106;28;20104;-67
2021/06/05 07:23:23;;;;;;;6.65;2.35;;;36.20;28.20;;;;;;5025867;28;20025;-67
2021/06/05 07:25:49;;;;;;;6.03;2.60;;;36.00;27.70;;;;;;5025555;28;20039;-67
2021/06/05 07:28:29;;;;;;;7.90;1.98;;;35.90;27.40;;;;;;5025700;28;20108;-67
2021/06/05 07:30:56;;;;;;;7.65;2.08;;;36.10;27.80;;;;;;5025941;28;20056;-67
2021/06/05 07:33:23;;;;;;;6.22;2.60;;;36.00;27.70;;;;;;5029450;28;20850;-67
2021/06/05 07:35:51;;;;;;;5.95;2.05;;;36.00;28.10;;;;;;5029636;28;20079;-67
2021/06/05 07:38:18;;;;;;;6.18;2.28;;;35.90;27.40;;;;;;5029590;28;20022;-68
2021/06/05 07:40:46;;;;;;;5.50;2.30;;;35.90;27.80;;;;;;5028161;28;20471;-68
2021/06/05 07:43:13;;;;;;;6.85;1.90;;;36.00;27.70;;;;;;5027781;28;20053;-67
2021/06/05 07:45:38;;;;;;;3.40;2.00;;;35.90;27.90;;;;;;5029291;28;20033;-68
2021/06/05 07:48:05;;;;;;;7.00;2.17;;;36.00;28.00;;;;;;5027795;28;20339;-67
2021/06/05 07:50:31;;;;;;;4.75;1.70;;;36.20;27.90;;;;;;5029077;28;20026;-68
2021/06/05 07:52:57;;;;;;;8.25;2.10;;;36.20;28.10;;;;;;5029190;28;20025;-68
2021/06/05 07:55:23;;;;;;;8.23;2.17;;;36.00;27.80;;;;;;5027907;28;20111;-67
2021/06/05 07:57:49;;;;;;;2.90;1.73;;;35.90;28.60;;;;;;5028632;28;20025;-67
2021/06/05 08:00:22;;;;;;;6.07;1.40;;;35.80;27.90;;;;;;5028968;28;20071;-66
2021/06/05 08:02:49;;;;;;;3.72;2.28;;;36.00;27.50;;;;;;5029120;28;20033;-68
2021/06/05 08:05:16;;;;;;;4.45;1.55;;;36.10;27.50;;;;;;5028481;28;20083;-69
2021/06/05 08:07:42;;;;;;;11.32;1.65;;;36.40;25.30;;;;;;5027315;28;20491;-68
2021/06/05 08:10:09;;;;;;;10.40;3.53;;;36.60;25.00;;;;;;5029112;28;20536;-68
2021/06/05 08:12:35;;;;;;;8.23;1.58;;;36.50;24.70;;;;;;5028459;28;20033;-69
2021/06/05 08:15:03;;;;;;;20.20;2.70;;;36.50;23.90;;;;;;5028529;28;20557;-68
2021/06/05 08:17:28;;;;;;;14.85;2.08;;;35.70;24.70;;;;;;5029022;28;20040;-69
2021/06/05 08:19:54;;;;;;;3.15;1.40;;;35.20;24.90;;;;;;5028278;28;20029;-68
2021/06/05 08:22:23;;;;;;;16.90;2.08;;;34.80;24.90;;;;;;5028834;28;20029;-68
2021/06/05 08:24:52;;;;;;;14.48;2.13;;;34.80;25.30;;;;;;5028535;28;20044;-69
2021/06/05 08:27:18;;;;;;;10.07;1.50;;;35.10;24.90;;;;;;5028247;28;20069;-68
2021/06/05 08:29:44;;;;;;;2.47;0.90;;;35.10;24.90;;;;;;5027456;28;20057;-67
2021/06/05 08:32:09;;;;;;;3.17;1.38;;;35.10;24.80;;;;;;5028624;28;20494;-67
2021/06/05 08:34:35;;;;;;;10.43;1.60;;;35.20;24.90;;;;;;5027961;28;20057;-67
2021/06/05 08:37:01;;;;;;;8.95;2.00;;;35.10;25.20;;;;;;5010672;28;20053;-68
2021/06/05 08:39:26;;;;;;;7.15;2.08;;;35.20;25.00;;;;;;5026885;28;20030;-69
2021/06/05 08:41:57;;;;;;;13.20;2.00;;;35.20;24.60;;;;;;5027685;28;20383;-67
2021/06/05 08:44:25;;;;;;;9.32;1.90;;;35.10;25.10;;;;;;5028226;28;20038;-68
2021/06/05 08:46:56;;;;;;;9.02;1.73;;;35.30;25.00;;;;;;5028326;28;20033;-68
2021/06/05 08:49:26;;;;;;;9.23;1.88;;;35.30;24.90;;;;;;5027789;28;20033;-69
2021/06/05 08:52:08;;;;;;;8.40;1.75;;;35.30;24.80;;;;;;5028414;28;20414;-69
2021/06/05 08:54:39;;;;;;;20.08;1.50;;;35.20;24.90;;;;;;5027677;28;20028;-70
2021/06/05 08:57:10;;;;;;;4.63;1.48;;;35.40;25.30;;;;;;5027686;28;20021;-69
2021/06/05 08:59:36;;;;;;;3.25;1.48;;;35.50;25.00;;;;;;5027787;28;20029;-68
2021/06/05 09:02:02;;;;;;;9.00;1.60;;;35.60;24.80;;;;;;5027492;28;20037;-68
2021/06/05 09:04:30;;;;;;;14.27;1.60;;;35.60;25.10;;;;;;5027874;28;20033;-69
2021/06/05 09:07:08;;;;;;;14.50;1.73;;;35.60;25.60;;;;;;5026590;28;20025;-68
2021/06/05 09:09:37;;;;;;;3.75;1.42;;;35.60;25.10;;;;;;5026263;28;20572;-68
2021/06/05 09:12:04;;;;;;;3.95;1.20;;;35.20;25.30;;;;;;5022830;28;20252;-68
2021/06/05 09:14:30;;;;;;;9.93;1.58;;;34.60;25.70;;;;;;5025572;28;20033;-69
2021/06/05 09:16:58;;;;;;;3.75;1.42;;;34.20;26.20;;;;;;5026882;28;20041;-68
2021/06/05 09:19:28;;;;;;;3.33;1.25;;;34.10;26.30;;;;;;5026456;28;20541;-68
2021/06/05 09:22:14;;;;;;;9.52;1.30;;;33.90;26.50;;;;;;5026525;28;20068;-68
2021/06/05 09:24:44;;;;;;;13.70;1.85;;;33.80;26.90;;;;;;5026701;28;20022;-68
2021/06/05 09:27:16;;;;;;;13.60;2.78;;;33.60;27.10;;;;;;5025972;28;20045;-67
2021/06/05 09:29:50;;;;;;;3.20;1.17;;;33.40;27.80;;;;;;5026059;28;20069;-68
2021/06/05 09:32:31;;;;;;;6.57;2.23;;;33.20;27.30;;;;;;5024697;28;20103;-68
2021/06/05 09:35:08;;;;;;;10.02;1.70;;;33.20;28.40;;;;;;5026224;28;20466;-69
2021/06/05 09:37:40;;;;;;;6.97;1.60;;;33.80;28.30;;;;;;5041675;28;21116;-68
2021/06/05 09:40:26;;;;;;;10.05;1.73;;;34.30;27.90;;;;;;5023698;28;20517;-68
2021/06/05 09:43:16;;;;;;;9.75;2.67;;;34.80;27.20;;;;;;5025818;28;20137;-68
2021/06/05 09:46:22;;;;;;;7.80;1.63;;;35.10;26.50;;;;;;5024696;28;20061;-68
2021/06/05 09:48:50;;;;;;;13.25;1.83;;;35.50;26.70;;;;;;5024364;28;20034;-68
2021/06/05 09:51:24;;;;;;;5.57;1.67;;;35.70;27.10;;;;;;5026019;28;20048;-68
2021/06/05 09:53:59;;;;;;;10.90;1.75;;;35.60;26.10;;;;;;5024940;28;20046;-69
2021/06/05 09:56:33;;;;;;;18.95;2.53;;;35.60;26.70;;;;;;5025760;28;20034;-69
2021/06/05 09:59:05;;;;;;;9.93;1.60;;;35.60;26.00;;;;;;5025693;28;20087;-67
2021/06/05 10:01:37;;;;;;;12.63;1.85;;;35.20;25.60;;;;;;5026115;28;20044;-68
2021/06/05 10:04:08;;;;;;;2.80;1.42;;;34.70;26.70;;;;;;5024411;28;20037;-67
2021/06/05 10:06:42;;;;;;;5.03;1.20;;;34.40;27.00;;;;;;5025491;28;20049;-67
2021/06/05 10:09:26;;;;;;;11.65;1.20;;;33.80;26.90;;;;;;5022412;28;20045;-67
2021/06/05 10:12:00;;;;;;;2.55;1.00;;;33.20;27.50;;;;;;5024048;28;20045;-67
2021/06/05 10:15:01;;;;;;;4.82;1.50;;;32.80;27.70;;;;;;5024184;28;20037;-67
2021/06/05 10:17:38;;;;;;;8.65;1.60;;;32.70;28.30;;;;;;5025008;28;20115;-67
2021/06/05 10:20:18;;;;;;;4.45;1.88;;;32.60;28.10;;;;;;5025208;28;20121;-67
2021/06/05 10:22:44;;;;;;;2.92;1.90;;;32.30;28.90;;;;;;5025225;28;20049;-68
2021/06/05 10:25:36;;;;;;;4.13;1.20;;;32.00;27.80;;;;;;5025427;28;20104;-67
2021/06/05 10:28:06;;;;;;;6.93;2.10;;;31.80;27.90;;;;;;5025062;28;20173;-67
2021/06/05 10:30:49;;;;;;;4.07;1.50;;;31.70;29.00;;;;;;5025578;28;20072;-67
2021/06/05 10:33:21;;;;;;;7.20;1.73;;;31.80;29.70;;;;;;5024234;28;20069;-68
2021/06/05 10:35:48;;;;;;;8.18;2.33;;;31.70;29.80;;;;;;5024385;28;20038;-68
2021/06/05 10:38:27;;;;;;;14.68;2.00;;;31.70;30.60;;;;;;5025181;28;20108;-68
2021/06/05 10:40:53;;;;;;;7.97;1.70;;;31.70;30.00;;;;;;5025138;28;20048;-67
2021/06/05 10:43:19;;;;;;;5.00;1.60;;;31.50;29.10;;;;;;5023435;28;20045;-68
2021/06/05 10:45:50;;;;;;;4.60;1.90;;;31.60;29.10;;;;;;5025398;28;20030;-67
2021/06/05 10:48:30;;;;;;;8.52;2.53;;;31.50;29.30;;;;;;5025458;28;20025;-69
2021/06/05 10:51:10;;;;;;;7.70;2.22;;;31.30;30.00;;;;;;5025029;28;20036;-69
2021/06/05 10:53:41;;;;;;;6.63;2.30;;;31.30;29.70;;;;;;5026304;28;20049;-69
2021/06/05 10:56:30;;;;;;;12.70;2.90;;;31.30;30.10;;;;;;5025615;28;20022;-70
2021/06/05 10:58:56;;;;;;;21.95;2.13;;;31.40;30.00;;;;;;5024204;28;20498;-68
2021/06/05 11:01:40;;;;;;;10.80;1.83;;;31.30;29.30;;;;;;5025172;28;20048;-69
2021/06/05 11:04:27;;;;;;;18.08;2.70;;;31.50;29.50;;;;;;5025262;28;20116;-69
2021/06/05 11:06:52;;;;;;;8.60;1.58;;;31.50;29.20;;;;;;5028844;28;20064;-69
2021/06/05 11:09:29;;;;;;;9.13;2.35;;;31.60;28.70;;;;;;5028937;28;20115;-68
2021/06/05 11:12:03;;;;;;;5.97;2.25;;;31.80;29.00;;;;;;5028872;28;20032;-69
2021/06/05 11:14:35;;;;;;;3.17;1.88;;;31.70;28.50;;;;;;5029755;28;20112;-69
2021/06/05 11:17:02;;;;;;;5.45;2.53;;;31.50;29.30;;;;;;5029167;28;20140;-69
2021/06/05 11:19:44;;;;;;;4.65;2.03;;;31.30;29.60;;;;;;5030014;28;20030;-69
2021/06/05 11:22:16;;;;;;;5.78;1.50;;;31.20;29.20;;;;;;5029915;28;20383;-69
2021/06/05 11:25:04;;;;;;;2.08;1.30;;;31.00;29.20;;;;;;5029508;28;20025;-67
2021/06/05 11:27:39;;;;;;;4.80;1.58;;;31.00;31.10;;;;;;5029202;28;20045;-69
2021/06/05 11:30:28;;;;;;;8.30;1.63;;;30.90;29.90;;;;;;5028567;28;20029;-67
2021/06/05 11:33:02;;;;;;;3.97;1.38;;;31.00;29.10;;;;;;5028813;28;20453;-67
2021/06/05 11:35:48;;;;;;;4.20;1.42;;;31.00;29.40;;;;;;5027759;28;20060;-69
2021/06/05 11:38:19;;;;;;;2.50;1.52;;;31.30;29.20;;;;;;5029029;28;20033;-68
2021/06/05 11:40:56;;;;;;;5.03;1.30;;;31.40;28.90;;;;;;5029361;28;20508;-69
2021/06/05 11:43:28;;;;;;;7.70;1.70;;;31.50;28.50;;;;;;5028331;28;20045;-68
2021/06/05 11:46:09;;;;;;;3.30;1.60;;;31.70;27.50;;;;;;5029223;28;20044;-68
2021/06/05 11:48:44;;;;;;;3.42;1.60;;;31.60;28.40;;;;;;5029366;28;20101;-69
2021/06/05 11:51:21;;;;;;;2.83;1.45;;;31.50;28.50;;;;;;5027778;28;20366;-69
2021/06/05 11:53:50;;;;;;;3.80;1.48;;;31.40;29.00;;;;;;5029479;28;20033;-68
2021/06/05 11:56:25;;;;;;;6.72;1.90;;;31.40;28.70;;;;;;5028760;28;20033;-68
2021/06/05 11:58:50;;;;;;;4.93;1.58;;;31.50;28.30;;;;;;5029138;28;20083;-68
2021/06/05 12:01:27;;;;;;;4.88;1.60;;;31.30;27.80;;;;;;5027496;28;20041;-68
2021/06/05 12:03:55;;;;;;;4.72;1.65;;;31.30;28.70;;;;;;5027844;28;20025;-68
2021/06/05 12:06:27;;;;;;;5.88;1.50;;;31.20;28.70;;;;;;5028956;28;20113;-69
2021/06/05 12:09:05;;;;;;;4.65;1.20;;;31.20;28.90;;;;;;5026838;28;20025;-67
2021/06/05 12:11:54;;;;;;;3.50;1.40;;;31.20;28.40;;;;;;5026402;28;20029;-69
2021/06/05 12:17:26;;;;;;;9.07;1.50;;;31.30;29.40;;;;;;5026729;28;20123;-67
2021/06/05 12:19:52;;;;;;;9.23;1.63;;;31.50;28.70;;;;;;5028043;28;20038;-69
2021/06/05 12:22:26;;;;;;;6.10;1.75;;;31.70;28.10;;;;;;5027841;28;20276;-68
2021/06/05 12:24:53;;;;;;;6.65;1.40;;;31.80;28.90;;;;;;5027261;28;20041;-69
2021/06/05 12:27:24;;;;;;;8.80;1.90;;;32.00;28.90;;;;;;5026145;28;20722;-69
2021/06/05 12:29:50;;;;;;;2.22;1.35;;;32.00;28.30;;;;;;5026733;28;20030;-68
2021/06/05 12:32:27;;;;;;;4.80;1.67;;;31.80;28.00;;;;;;5027713;28;20101;-67
2021/06/05 12:34:54;;;;;;;4.13;1.55;;;31.60;28.30;;;;;;5027134;28;20045;-69
2021/06/05 12:37:19;;;;;;;11.02;1.60;;;31.30;29.10;;;;;;5027793;28;20028;-69
2021/06/05 12:39:50;;;;;;;7.63;1.90;;;31.10;29.60;;;;;;5027904;28;20029;-69
2021/06/05 12:42:37;;;;;;;4.78;1.80;;;30.70;29.70;;;;;;5028371;28;20076;-68
2021/06/05 12:45:10;;;;;;;4.72;1.73;;;30.50;30.00;;;;;;5025282;28;20065;-68
2021/06/05 12:47:41;;;;;;;5.75;1.75;;;30.10;30.00;;;;;;5027320;28;20726;-68
2021/06/05 12:50:12;;;;;;;4.03;1.20;;;29.90;30.30;;;;;;5026921;28;20040;-68
2021/06/05 12:52:42;;;;;;;14.40;2.28;;;29.80;30.80;;;;;;5027140;28;20211;-68
2021/06/05 12:55:28;;;;;;;6.15;1.58;;;29.80;31.70;;;;;;5022908;28;20095;-68
2021/06/05 12:57:59;;;;;;;2.50;1.50;;;29.70;30.80;;;;;;5025610;28;20049;-69
2021/06/05 13:00:30;;;;;;;7.50;1.80;;;29.70;31.10;;;;;;5023371;28;20399;-68
2021/06/05 13:03:08;;;;;;;2.08;1.42;;;29.40;31.10;;;;;;5025146;28;20858;-67
2021/06/05 13:05:40;;;;;;;2.83;1.88;;;29.40;30.60;;;;;;5025153;28;20510;-68